Allison Crosby — WDF2763 — position and weather

sailwx.info

Track history (hours):
 
Tides and Currents Weather Stations Pressure Air Temp Water Temp Dewpoint Dewpoint Depression Visibility Wind Speed Wind Dir Waves Ship Positions

Allison Crosby

Owner: Crosby Marine Transportation LLC, Golden Meadow, LA. More information available from US FCC via Universal Licensing System and Coast Guard Vessel Documentation Center.

Last reported at 2015-May-09 22:29 UTC. Time now 2015-May-24 03:17 UTC.
Position N 32°15' W 117°39'.
Warning: this ship's position is 14 days out of date.

Length 21 m; draft 4.1 m.

Type: Tow > 200 m length. MMSI: 367431620.

Date/timePositionNaut miles runAvg speedWind from/ knotsBaromVisibWave heightAir tempDewpointWater temp
2015-May-09 22:29N 32°15' W 117°39'7 7.2
2015-May-09 21:32N 32°22' W 117°42'8 7.2
2015-May-09 20:29N 32°29' W 117°45'7 7.0
2015-May-09 19:33N 32°35' W 117°47'7 6.8
2015-May-09 18:33N 32°41' W 117°50'7 6.9
2015-May-09 17:33N 32°48' W 117°53'7 6.9
2015-May-09 16:33N 32°54' W 117°55'7 6.8
2015-May-09 15:33N 33°01' W 117°58'7 7.0
2015-May-09 14:33N 33°07' W 118°01'7 7.0
2015-May-09 13:33N 33°14' W 118°03'  
2015-May-07 08:31N 35°49' W 121°58'8 5.9
2015-May-07 07:07N 35°56' W 122°03'3 5.9
2015-May-07 06:33N 35°58' W 122°05'6 6.0
2015-May-07 05:33N 36°04' W 122°09'7 6.2
2015-May-07 04:25N 36°09' W 122°14'6 6.5
2015-May-07 03:33N 36°14' W 122°18'6 6.1
2015-May-07 02:33N 36°19' W 122°22'6 5.6
2015-May-07 01:32N 36°24' W 122°26'6 5.8
2015-May-07 00:33N 36°29' W 122°29'6 6.1
2015-May-06 23:31N 36°34' W 122°33'5 5.7
2015-May-06 22:33N 36°39' W 122°37'77 4.8
2015-May-06 06:23N 37°44' W 123°28'4 4.6
2015-May-06 05:32N 37°47' W 123°31'4 4.5
2015-May-06 04:33N 37°51' W 123°34'4 4.5
2015-May-06 03:33N 37°55' W 123°37'5 4.5
2015-May-06 02:33N 37°59' W 123°40'5 4.9
2015-May-06 01:33N 38°03' W 123°42'5 5.5
2015-May-06 00:33N 38°09' W 123°44'6 5.7
2015-May-05 23:32N 38°14' W 123°47'6 5.9
2015-May-05 22:33N 38°19' W 123°50'6 5.8
2015-May-05 21:33N 38°25' W 123°52'9 6.1
2015-May-05 20:09N 38°33' W 123°57'  
2015-May-03 07:29N 44°47' W 125°16'5 5.6
2015-May-03 06:32N 44°53' W 125°17'5 5.6
2015-May-03 05:33N 44°58' W 125°17'7 5.9
2015-May-03 04:21N 45°05' W 125°18'5 6.0
2015-May-03 03:33N 45°10' W 125°18'7 6.1
2015-May-03 02:26N 45°17' W 125°18'12 6.2
2015-May-03 00:32N 45°29' W 125°19'177 5.7
2015-May-01 17:33N 48°26' W 125°05'6 5.4
2015-May-01 16:31N 48°30' W 124°59'6 5.7
2015-May-01 15:32N 48°31' W 124°51'7 6.7
2015-May-01 14:33N 48°30' W 124°41'7 7.1
2015-May-01 13:33N 48°28' W 124°31'7 7.2
2015-May-01 12:33N 48°25' W 124°21'7 6.8
2015-May-01 11:33N 48°22' W 124°12'6 6.0
2015-May-01 10:33N 48°20' W 124°03'6 5.7
2015-May-01 09:32N 48°18' W 123°55'6 5.7
2015-May-01 08:28N 48°17' W 123°46'5 5.3
2015-May-01 07:33N 48°16' W 123°39'6 5.6
2015-May-01 06:32N 48°16' W 123°31'5 5.5
2015-May-01 05:33N 48°15' W 123°23'6 6.0
2015-May-01 04:33N 48°14' W 123°14'7 6.7
2015-May-01 03:30N 48°13' W 123°03'6 6.6
2015-May-01 02:32N 48°12' W 122°54'15 6.6
2015-May-01 00:18N 48°02' W 122°38'5 6.4
2015-Apr-30 23:33N 47°58' W 122°34'5 6.1
2015-Apr-30 22:46N 47°55' W 122°29'1 5.4
2015-Apr-30 22:33N 47°54' W 122°28'0 5.4
2015-Apr-30 22:31N 47°53' W 122°28'6 5.9
2015-Apr-30 21:33N 47°48' W 122°26'0 5.7
2015-Apr-30 21:31N 47°48' W 122°26'6 6.0
2015-Apr-30 20:33N 47°42' W 122°27'0 5.8
2015-Apr-30 20:29N 47°42' W 122°27'6 5.9
2015-Apr-30 19:33N 47°36' W 122°28'0 6.1
2015-Apr-30 19:29N 47°36' W 122°28'3 2.9
2015-Apr-30 18:34N 47°34' W 122°30'0 0.0
2015-Apr-30 18:33N 47°34' W 122°30'3 3.4
2015-Apr-30 17:33N 47°35' W 122°35'0 0.0
2015-Apr-30 17:33N 47°35' W 122°35'3 3.1
2015-Apr-30 16:34N 47°33' W 122°39'0 0.0
2015-Apr-30 15:33N 47°33' W 122°39'0 0.0
2015-Apr-30 14:33N 47°33' W 122°39'0 0.0
2015-Apr-30 13:33N 47°33' W 122°39'0 0.0
2015-Apr-30 12:33N 47°33' W 122°39'0 0.0
2015-Apr-30 11:38N 47°33' W 122°39'0 0.0
2015-Apr-30 11:33N 47°33' W 122°39'0 0.0
2015-Apr-30 10:33N 47°33' W 122°39'0 0.0
2015-Apr-30 09:33N 47°33' W 122°39'0 0.0
2015-Apr-30 08:33N 47°33' W 122°39'0 0.0
2015-Apr-30 07:33N 47°33' W 122°39'0 0.0
2015-Apr-30 06:33N 47°33' W 122°39'0 0.0
2015-Apr-30 05:33N 47°33' W 122°39'0 0.0
2015-Apr-30 04:33N 47°33' W 122°39'0 0.0
2015-Apr-30 03:34N 47°33' W 122°39'0 0.0
2015-Apr-30 02:33N 47°33' W 122°39'0 0.0
2015-Apr-30 01:33N 47°33' W 122°39'0 0.0
2015-Apr-30 00:33N 47°33' W 122°39'0 0.0
2015-Apr-29 23:33N 47°33' W 122°39'0 0.0
2015-Apr-29 22:33N 47°33' W 122°39'  
Track history (hours):
 
Tides and Currents Weather Stations Pressure Air Temp Water Temp Dewpoint Dewpoint Depression Visibility Wind Speed Wind Dir Waves Ship Positions

Allison Crosby

Owner: Crosby Marine Transportation LLC, Golden Meadow, LA. More information available from US FCC via Universal Licensing System and Coast Guard Vessel Documentation Center.

Last reported at 2015-May-09 22:29 UTC. Time now 2015-May-24 03:17 UTC.
Position N 32°15' W 117°39'.
Warning: this ship's position is 14 days out of date.

Length 21 m; draft 4.1 m.

Type: Tow > 200 m length. MMSI: 367431620.

Date/timePositionNaut miles runAvg speedWind from/ knotsBaromVisibWave heightAir tempDewpointWater temp
2015-May-09 22:29N 32°15' W 117°39'7 7.2
2015-May-09 21:32N 32°22' W 117°42'8 7.2
2015-May-09 20:29N 32°29' W 117°45'7 7.0
2015-May-09 19:33N 32°35' W 117°47'7 6.8
2015-May-09 18:33N 32°41' W 117°50'7 6.9
2015-May-09 17:33N 32°48' W 117°53'7 6.9
2015-May-09 16:33N 32°54' W 117°55'7 6.8
2015-May-09 15:33N 33°01' W 117°58'7 7.0
2015-May-09 14:33N 33°07' W 118°01'7 7.0
2015-May-09 13:33N 33°14' W 118°03'  
2015-May-07 08:31N 35°49' W 121°58'8 5.9
2015-May-07 07:07N 35°56' W 122°03'3 5.9
2015-May-07 06:33N 35°58' W 122°05'6 6.0
2015-May-07 05:33N 36°04' W 122°09'7 6.2
2015-May-07 04:25N 36°09' W 122°14'6 6.5
2015-May-07 03:33N 36°14' W 122°18'6 6.1
2015-May-07 02:33N 36°19' W 122°22'6 5.6
2015-May-07 01:32N 36°24' W 122°26'6 5.8
2015-May-07 00:33N 36°29' W 122°29'6 6.1
2015-May-06 23:31N 36°34' W 122°33'5 5.7
2015-May-06 22:33N 36°39' W 122°37'77 4.8
2015-May-06 06:23N 37°44' W 123°28'4 4.6
2015-May-06 05:32N 37°47' W 123°31'4 4.5
2015-May-06 04:33N 37°51' W 123°34'4 4.5
2015-May-06 03:33N 37°55' W 123°37'5 4.5
2015-May-06 02:33N 37°59' W 123°40'5 4.9
2015-May-06 01:33N 38°03' W 123°42'5 5.5
2015-May-06 00:33N 38°09' W 123°44'6 5.7
2015-May-05 23:32N 38°14' W 123°47'6 5.9
2015-May-05 22:33N 38°19' W 123°50'6 5.8
2015-May-05 21:33N 38°25' W 123°52'9 6.1
2015-May-05 20:09N 38°33' W 123°57'  
2015-May-03 07:29N 44°47' W 125°16'5 5.6
2015-May-03 06:32N 44°53' W 125°17'5 5.6
2015-May-03 05:33N 44°58' W 125°17'7 5.9
2015-May-03 04:21N 45°05' W 125°18'5 6.0
2015-May-03 03:33N 45°10' W 125°18'7 6.1
2015-May-03 02:26N 45°17' W 125°18'12 6.2
2015-May-03 00:32N 45°29' W 125°19'177 5.7
2015-May-01 17:33N 48°26' W 125°05'6 5.4
2015-May-01 16:31N 48°30' W 124°59'6 5.7
2015-May-01 15:32N 48°31' W 124°51'7 6.7
2015-May-01 14:33N 48°30' W 124°41'7 7.1
2015-May-01 13:33N 48°28' W 124°31'7 7.2
2015-May-01 12:33N 48°25' W 124°21'7 6.8
2015-May-01 11:33N 48°22' W 124°12'6 6.0
2015-May-01 10:33N 48°20' W 124°03'6 5.7
2015-May-01 09:32N 48°18' W 123°55'6 5.7
2015-May-01 08:28N 48°17' W 123°46'5 5.3
2015-May-01 07:33N 48°16' W 123°39'6 5.6
2015-May-01 06:32N 48°16' W 123°31'5 5.5
2015-May-01 05:33N 48°15' W 123°23'6 6.0
2015-May-01 04:33N 48°14' W 123°14'7 6.7
2015-May-01 03:30N 48°13' W 123°03'6 6.6
2015-May-01 02:32N 48°12' W 122°54'15 6.6
2015-May-01 00:18N 48°02' W 122°38'5 6.4
2015-Apr-30 23:33N 47°58' W 122°34'5 6.1
2015-Apr-30 22:46N 47°55' W 122°29'1 5.4
2015-Apr-30 22:33N 47°54' W 122°28'0 5.4
2015-Apr-30 22:31N 47°53' W 122°28'6 5.9
2015-Apr-30 21:33N 47°48' W 122°26'0 5.7
2015-Apr-30 21:31N 47°48' W 122°26'6 6.0
2015-Apr-30 20:33N 47°42' W 122°27'0 5.8
2015-Apr-30 20:29N 47°42' W 122°27'6 5.9
2015-Apr-30 19:33N 47°36' W 122°28'0 6.1
2015-Apr-30 19:29N 47°36' W 122°28'3 2.9
2015-Apr-30 18:34N 47°34' W 122°30'0 0.0
2015-Apr-30 18:33N 47°34' W 122°30'3 3.4
2015-Apr-30 17:33N 47°35' W 122°35'0 0.0
2015-Apr-30 17:33N 47°35' W 122°35'3 3.1
2015-Apr-30 16:34N 47°33' W 122°39'0 0.0
2015-Apr-30 15:33N 47°33' W 122°39'0 0.0
2015-Apr-30 14:33N 47°33' W 122°39'0 0.0
2015-Apr-30 13:33N 47°33' W 122°39'0 0.0
2015-Apr-30 12:33N 47°33' W 122°39'0 0.0
2015-Apr-30 11:38N 47°33' W 122°39'0 0.0
2015-Apr-30 11:33N 47°33' W 122°39'0 0.0
2015-Apr-30 10:33N 47°33' W 122°39'0 0.0
2015-Apr-30 09:33N 47°33' W 122°39'0 0.0
2015-Apr-30 08:33N 47°33' W 122°39'0 0.0
2015-Apr-30 07:33N 47°33' W 122°39'0 0.0
2015-Apr-30 06:33N 47°33' W 122°39'0 0.0
2015-Apr-30 05:33N 47°33' W 122°39'0 0.0
2015-Apr-30 04:33N 47°33' W 122°39'0 0.0
2015-Apr-30 03:34N 47°33' W 122°39'0 0.0
2015-Apr-30 02:33N 47°33' W 122°39'0 0.0
2015-Apr-30 01:33N 47°33' W 122°39'0 0.0
2015-Apr-30 00:33N 47°33' W 122°39'0 0.0
2015-Apr-29 23:33N 47°33' W 122°39'0 0.0
2015-Apr-29 22:33N 47°33' W 122°39'  

Dump ship's entire track history